Roth, ND

1:00 AM CDT on April 21, 2015 (GMT -0500)
Bottineau weather station | | Change Station
CLOSE
Current Station
Personal Weather Station
Location: Bottineau, ND
Elevation: 1644 ft
Nearby Weather Stations
Active Advisory: Flood Warning

Elev 1644 ft 48.83 °N, 100.45 °W | Updated 1 second ago

Mostly Cloudy
Mostly Cloudy
33.1 °F
Feels Like 30 °F
N
3.6
Wind Variable Wind from WSW
Gusts 3.6 mph

Today
High -- | Low -- °F
--% Chance of Precip.
Yesterday
High -- | Low -- °F
Precip. -- in
6:41 AM 8:43 PM
Waxing Crescent, 8% visible
Pressure 29.86 in
Visibility 10.0 miles
Clouds Few 9000 ft
Windchill 30 °F
Dew Point 17 °F
Humidity 52%
Rainfall 0.00 in
Snow Depth Not available.
UV 0 out of 12
Pollen 10.30 out of 12
Air Quality Not available.
Flu Activity Regional
METAR KMIB 210558Z AUTO 01007KT 10SM FEW090 02/M05 A2980 RMK AO2 SLP109 T00241050 10097 20024 401041030 53011 $

More Conditions Fewer Conditions

Pressure 29.86 in
Visibility 10.0 miles
Clouds Few 9000 ft
Windchill 30 °F
Dew Point 17 °F
Humidity 52%
Rainfall 0.00 in
Snow Depth Not available.
UV 0 out of 12
Pollen 10.30 out of 12
Air Quality Not available.
Flu Activity Regional
METAR KMIB 210558Z AUTO 01007KT 10SM FEW090 02/M05 A2980 RMK AO2 SLP109 T00241050 10097 20024 401041030 53011 $

More Conditions Fewer Conditions

10-Day Weather Forecast

Almanac

Astronomy

Apr. 21, 2015 Rise Set
Actual Time
Civil Twilight
Nautical Twilight
Astronomical Twilight
Moon
Length of Visible Light
Length of Day
Tomorrow will be .
, % of the Moon is Illuminated

Today's Extremes

State Highs State Lows

Community

WunderPhotos

Upload Photos

1,815,318 photos uploaded!

WunderBlogs® & News

Nearby

Air Quality

  Air Quality AQ Index Pollutant
Not available.

Snow Depth

Station Depth Elevation

Earthquake Activity

City Distance Mag. Time & Date
Minimum magnitude displayed is 2.5.

Coastal Water Temperatures

Place Temperature

Stations

Nearby Weather Stations

Station Location Temp. Windchill Dew Point Humidity Wind Precip. Elev Updated Type
                   
Flood Warning
Statement as of 11:34 AM CDT on April 20, 2015

The Flood Warning continues for
the Souris river near Westhope.
* Until further notice.
* At 10:00 am Monday the stage was 10.1 feet.
* Flood stage is 10.0 feet.
* Minor flooding is occurring and minor flooding is forecast.
* Forecast... the river will continue rising to near 10.1 feet by this
afternoon. Additional rises may be possible thereafter.
* Impact... at 10.0 feet... water is almost valley-wide, but the area
flooded is grass covered and no buildings are affected.



             Fld observed forecasts (7am)
location stg stg day/time Tue Wed Thu Fri Sat

Souris river basin
Westhope 10 10.1 Mon 10 am 10.1 10.1 10.1 10.1 10.1


Lat... Lon 4900 10099 4900 10093 4886 10090 4875 10080
      4875 10088 4890 10099